createdAt,value
2023-03-06T00:00:22.191Z,4.18
2023-03-06T00:02:48.842Z,3.83
2023-03-06T00:05:16.373Z,4.04
2023-03-06T00:07:44.444Z,4.09
2023-03-06T00:10:16.532Z,4.18
2023-03-06T00:12:43.229Z,4.22
2023-03-06T00:15:10.981Z,4.14
2023-03-06T00:17:37.817Z,3.91
2023-03-06T00:20:05.974Z,4.23
2023-03-06T00:22:32.866Z,4.47
2023-03-06T00:24:59.513Z,4.98
2023-03-06T00:27:26.497Z,5.04
2023-03-06T00:29:57.846Z,4.59
2023-03-06T00:32:25.892Z,4.50
2023-03-06T00:34:53.963Z,4.81
2023-03-06T00:37:23.531Z,5.08
2023-03-06T00:39:51.171Z,4.71
2023-03-06T00:42:19.330Z,4.99
2023-03-06T00:44:46.279Z,5.19
2023-03-06T00:47:13.845Z,5.30
2023-03-06T00:49:40.428Z,5.64
2023-03-06T00:52:07.025Z,5.92
2023-03-06T00:54:33.623Z,5.76
2023-03-06T00:57:00.202Z,5.58
2023-03-06T00:59:27.749Z,5.64
2023-03-06T01:01:54.780Z,6.61
2023-03-06T01:04:21.686Z,6.92
2023-03-06T01:06:48.649Z,7.33
2023-03-06T01:09:15.406Z,8.27
2023-03-06T01:11:42.016Z,8.37
2023-03-06T01:14:08.627Z,8.57
2023-03-06T01:16:35.300Z,9.05
2023-03-06T01:19:01.948Z,9.43
2023-03-06T01:21:28.713Z,9.88
2023-03-06T01:23:55.376Z,9.91
2023-03-06T01:26:22.053Z,10.49
2023-03-06T01:28:48.690Z,10.60
2023-03-06T01:31:15.357Z,11.21
2023-03-06T01:33:41.956Z,11.50
2023-03-06T01:36:12.126Z,11.65
2023-03-06T01:38:39.013Z,11.54
2023-03-06T01:41:06.742Z,12.11
2023-03-06T01:43:39.463Z,12.37
2023-03-06T01:46:42.276Z,12.65
2023-03-06T01:49:21.220Z,12.62
2023-03-06T01:52:03.757Z,12.99
2023-03-06T01:54:47.758Z,13.08
2023-03-06T01:57:20.449Z,13.58
2023-03-06T01:59:53.117Z,13.87
2023-03-06T02:02:20.876Z,14.59
2023-03-06T02:04:48.507Z,14.40
2023-03-06T02:07:19.682Z,15.39
2023-03-06T02:09:46.450Z,16.45
2023-03-06T02:12:18.969Z,16.50
2023-03-06T02:14:46.996Z,16.64
2023-03-06T02:17:17.454Z,16.93
2023-03-06T02:20:04.169Z,16.90
2023-03-06T02:22:58.154Z,16.86
2023-03-06T02:25:27.550Z,18.28
2023-03-06T02:27:54.150Z,17.65
2023-03-06T02:30:23.574Z,18.45
2023-03-06T02:32:50.191Z,18.96
2023-03-06T02:35:28.755Z,19.68
2023-03-06T02:37:58.650Z,19.94
2023-03-06T02:40:26.156Z,20.30
2023-03-06T02:42:56.498Z,20.85
2023-03-06T02:45:33.600Z,21.15
2023-03-06T02:48:00.197Z,20.70
2023-03-06T02:50:26.975Z,22.33
2023-03-06T02:52:53.531Z,21.67
2023-03-06T02:55:20.274Z,21.78
2023-03-06T02:57:46.886Z,22.47
2023-03-06T03:00:14.333Z,21.55
2023-03-06T03:02:41.836Z,21.65
2023-03-06T03:05:09.543Z,21.77
2023-03-06T03:07:36.227Z,21.48
2023-03-06T03:10:04.238Z,22.05
2023-03-06T03:12:31.661Z,21.58
2023-03-06T03:14:58.295Z,21.24
2023-03-06T03:17:24.941Z,21.55
2023-03-06T03:19:52.390Z,21.12
2023-03-06T03:22:19.005Z,21.17
2023-03-06T03:24:46.340Z,20.93
2023-03-06T03:27:13.492Z,21.13
2023-03-06T03:29:41.265Z,20.44
2023-03-06T03:32:08.528Z,20.93
2023-03-06T03:34:35.119Z,20.82
2023-03-06T03:37:01.781Z,20.51
2023-03-06T03:39:28.408Z,20.13
2023-03-06T03:41:55.132Z,20.79
2023-03-06T03:44:21.747Z,19.90
2023-03-06T03:46:48.469Z,19.57
2023-03-06T03:49:15.465Z,19.13
2023-03-06T03:51:42.196Z,19.64
2023-03-06T03:54:08.772Z,18.85
2023-03-06T03:56:35.982Z,18.46
2023-03-06T03:59:02.687Z,17.82
2023-03-06T04:01:29.436Z,17.22
2023-03-06T04:03:56.018Z,17.25
2023-03-06T04:06:22.681Z,17.14
2023-03-06T04:08:49.333Z,16.95
2023-03-06T04:11:16.225Z,16.49
2023-03-06T04:13:42.833Z,17.23
2023-03-06T04:16:09.550Z,17.14
2023-03-06T04:18:36.282Z,16.96
2023-03-06T04:21:03.060Z,16.69
2023-03-06T04:23:29.672Z,16.48
2023-03-06T04:25:56.660Z,16.27
2023-03-06T04:28:23.653Z,16.54
2023-03-06T04:30:50.287Z,16.77
2023-03-06T04:33:17.208Z,16.83
2023-03-06T04:35:43.870Z,15.78
2023-03-06T04:38:10.474Z,16.01
2023-03-06T04:40:37.568Z,15.96
2023-03-06T04:43:05.142Z,15.33
2023-03-06T04:45:33.184Z,15.32
2023-03-06T04:48:00.595Z,15.33
2023-03-06T04:50:32.414Z,15.17
2023-03-06T04:53:03.535Z,13.84
2023-03-06T04:55:30.295Z,13.69
2023-03-06T04:57:57.929Z,13.91
2023-03-06T05:00:33.118Z,13.63
2023-03-06T05:03:01.024Z,12.57
2023-03-06T05:05:28.277Z,11.68
2023-03-06T05:07:55.316Z,11.85
2023-03-06T05:10:22.009Z,11.15
2023-03-06T05:12:48.676Z,10.42
2023-03-06T05:15:15.544Z,9.73
2023-03-06T05:17:42.431Z,8.51
2023-03-06T05:20:12.411Z,8.67
2023-03-06T05:22:39.593Z,8.46
2023-03-06T05:25:07.411Z,7.92
2023-03-06T05:27:34.461Z,7.30
2023-03-06T05:30:01.126Z,7.06
2023-03-06T05:32:28.169Z,6.47
2023-03-06T05:34:54.896Z,6.19
2023-03-06T05:37:23.115Z,6.72
2023-03-06T05:39:50.735Z,6.62
2023-03-06T05:42:18.298Z,6.48
2023-03-06T05:44:45.239Z,7.25
2023-03-06T05:47:12.129Z,7.38
2023-03-06T05:49:39.065Z,7.36
2023-03-06T05:52:06.940Z,7.91
2023-03-06T05:54:35.915Z,8.12
2023-03-06T05:57:04.896Z,8.25
2023-03-06T05:59:33.017Z,8.53
2023-03-06T06:02:00.796Z,8.17
2023-03-06T06:04:27.460Z,7.91
2023-03-06T06:06:56.965Z,8.07
2023-03-06T06:09:24.136Z,7.90
2023-03-06T06:11:53.354Z,8.27
2023-03-06T06:14:20.214Z,7.63
2023-03-06T06:16:46.900Z,7.68
2023-03-06T06:19:18.539Z,7.40
2023-03-06T06:21:47.777Z,7.36
2023-03-06T06:24:16.163Z,6.37
2023-03-06T06:26:43.310Z,6.36
2023-03-06T06:29:11.107Z,6.45
2023-03-06T06:31:37.812Z,6.34
2023-03-06T06:34:06.793Z,5.56
2023-03-06T06:36:33.861Z,5.67
2023-03-06T06:39:00.461Z,4.67
2023-03-06T06:41:42.687Z,4.38
2023-03-06T06:44:15.410Z,4.74
2023-03-06T06:49:32.886Z,3.99
2023-03-06T06:52:00.112Z,3.84
2023-03-06T06:54:27.098Z,3.54
2023-03-06T06:56:53.937Z,3.59
2023-03-06T06:59:23.473Z,3.81
2023-03-06T07:01:51.818Z,4.20
2023-03-06T07:04:19.459Z,4.08
2023-03-06T07:06:46.099Z,3.60
2023-03-06T07:09:13.646Z,2.95
2023-03-06T07:11:40.594Z,2.67
2023-03-06T07:14:07.293Z,2.81
2023-03-06T07:16:34.252Z,2.60
2023-03-06T07:19:01.008Z,2.55
2023-03-06T07:21:27.663Z,2.65
2023-03-06T07:23:57.167Z,2.53
2023-03-06T07:26:25.146Z,2.38
2023-03-06T07:28:55.231Z,2.22
2023-03-06T07:31:24.784Z,2.28
2023-03-06T07:33:54.093Z,2.17
2023-03-06T07:36:22.698Z,2.03
2023-03-06T07:38:49.506Z,2.12
2023-03-06T07:41:17.154Z,1.93
2023-03-06T07:43:45.637Z,1.94
2023-03-06T07:46:14.459Z,2.11
2023-03-06T07:48:42.335Z,1.99
2023-03-06T07:51:14.801Z,1.88
2023-03-06T07:53:41.417Z,1.77
2023-03-06T07:56:09.282Z,2.03
2023-03-06T07:58:38.119Z,1.78
2023-03-06T08:01:08.057Z,1.91
2023-03-06T08:03:34.834Z,1.87
2023-03-06T08:06:09.053Z,1.82
2023-03-06T08:08:37.181Z,1.83
2023-03-06T08:11:03.912Z,1.76
2023-03-06T08:13:30.497Z,1.53
2023-03-06T08:15:57.158Z,1.38
2023-03-06T08:18:23.748Z,1.39
2023-03-06T08:20:50.404Z,1.24
2023-03-06T08:23:17.518Z,1.36
2023-03-06T08:25:44.139Z,1.33
2023-03-06T08:28:10.719Z,1.40
2023-03-06T08:30:37.311Z,1.53
2023-03-06T08:33:03.988Z,1.54
2023-03-06T08:35:30.683Z,1.31
2023-03-06T08:37:57.297Z,1.11
2023-03-06T08:40:26.981Z,1.13
2023-03-06T08:42:53.572Z,1.18
2023-03-06T08:45:20.178Z,1.03
2023-03-06T08:47:46.716Z,1.17
2023-03-06T08:50:14.085Z,1.18
2023-03-06T08:52:40.660Z,1.28
2023-03-06T08:55:07.745Z,1.21
2023-03-06T08:57:34.348Z,1.06
2023-03-06T09:00:00.917Z,1.03
2023-03-06T09:02:27.498Z,1.11
2023-03-06T09:04:54.198Z,1.11
2023-03-06T09:07:21.496Z,1.02
2023-03-06T09:09:48.094Z,0.95
2023-03-06T09:12:14.868Z,0.91
2023-03-06T09:14:41.552Z,1.04
2023-03-06T09:17:08.093Z,0.83
2023-03-06T09:19:34.731Z,0.91
2023-03-06T09:22:01.309Z,0.97
2023-03-06T09:24:28.019Z,0.93
2023-03-06T09:26:54.576Z,0.81
2023-03-06T09:29:21.263Z,0.84
2023-03-06T09:31:48.119Z,0.85
2023-03-06T09:34:14.809Z,1.00
2023-03-06T09:36:55.549Z,1.02
2023-03-06T09:39:25.115Z,0.95
2023-03-06T09:41:52.659Z,0.78
2023-03-06T09:44:23.080Z,1.02
2023-03-06T09:47:11.542Z,0.99
2023-03-06T09:50:00.781Z,1.11
2023-03-06T09:52:30.397Z,1.08
2023-03-06T09:55:11.430Z,0.98
2023-03-06T09:57:45.532Z,0.86
2023-03-06T10:00:19.693Z,0.86
2023-03-06T10:03:30.701Z,1.01
2023-03-06T10:06:04.355Z,0.98
2023-03-06T10:08:47.994Z,0.86
2023-03-06T10:11:22.257Z,0.82
2023-03-06T10:13:56.906Z,0.93
2023-03-06T10:16:33.356Z,0.77
2023-03-06T10:19:07.889Z,0.70
2023-03-06T10:21:41.464Z,0.62
2023-03-06T10:24:23.073Z,0.68
2023-03-06T10:26:59.895Z,0.59
2023-03-06T10:30:02.558Z,0.50
2023-03-06T10:32:49.674Z,0.62
2023-03-06T10:35:25.557Z,0.92
2023-03-06T10:38:01.156Z,0.76
2023-03-06T10:40:37.918Z,0.96
2023-03-06T10:43:12.241Z,0.72
2023-03-06T10:45:51.072Z,0.70
2023-03-06T10:48:25.130Z,0.81
2023-03-06T10:50:53.449Z,0.68
2023-03-06T10:53:28.926Z,0.70
2023-03-06T10:56:00.128Z,0.81
2023-03-06T10:58:32.148Z,0.70
2023-03-06T11:01:22.068Z,0.73
2023-03-06T11:03:48.770Z,0.76
2023-03-06T11:06:31.730Z,0.62
2023-03-06T11:09:22.983Z,1.47
2023-03-06T11:11:51.055Z,0.89
2023-03-06T11:14:27.143Z,0.73
2023-03-06T11:16:54.285Z,0.71
2023-03-06T11:19:28.059Z,0.59
2023-03-06T11:22:03.999Z,0.59
2023-03-06T11:24:43.012Z,0.58
2023-03-06T11:27:23.886Z,0.67
2023-03-06T11:29:55.062Z,0.73
2023-03-06T11:32:28.970Z,0.70
2023-03-06T11:35:10.033Z,0.77
2023-03-06T11:37:49.012Z,0.96
2023-03-06T11:40:24.428Z,0.80
2023-03-06T11:42:57.350Z,1.16
2023-03-06T11:45:38.149Z,1.30
2023-03-06T11:48:13.846Z,1.73
2023-03-06T11:50:43.508Z,1.64
2023-03-06T11:53:42.712Z,1.52
2023-03-06T11:56:35.708Z,1.36
2023-03-06T11:59:44.823Z,1.28
2023-03-06T12:02:20.338Z,1.43
2023-03-06T12:05:11.391Z,1.33
2023-03-06T12:08:33.363Z,1.69
2023-03-06T12:11:11.975Z,1.90
2023-03-06T12:14:02.355Z,1.83
2023-03-06T12:16:51.559Z,2.04
2023-03-06T12:19:37.801Z,2.04
2023-03-06T12:22:10.083Z,2.23
2023-03-06T12:25:09.382Z,2.46
2023-03-06T12:28:00.341Z,2.25
2023-03-06T12:30:31.711Z,2.24
2023-03-06T12:33:19.757Z,2.50
2023-03-06T12:35:55.086Z,2.72
2023-03-06T12:38:39.816Z,2.83
2023-03-06T12:41:21.273Z,2.85
2023-03-06T12:44:06.644Z,2.83
2023-03-06T12:46:44.341Z,2.83
2023-03-06T12:49:31.873Z,2.74
2023-03-06T12:52:02.131Z,2.71
2023-03-06T12:54:35.193Z,2.77
2023-03-06T12:57:02.639Z,2.75
2023-03-06T12:59:44.651Z,2.76
2023-03-06T13:02:14.289Z,2.80
2023-03-06T13:05:05.010Z,3.03
2023-03-06T13:07:50.199Z,3.16
2023-03-06T13:10:28.682Z,3.31
2023-03-06T13:13:41.260Z,3.52
2023-03-06T13:16:30.769Z,4.10
2023-03-06T13:19:24.283Z,4.50
2023-03-06T13:21:56.662Z,5.88
2023-03-06T13:24:33.852Z,5.35
2023-03-06T13:27:12.323Z,5.80
2023-03-06T13:29:38.836Z,6.98
2023-03-06T13:32:13.102Z,7.51
2023-03-06T13:34:47.008Z,7.59
2023-03-06T13:37:13.663Z,7.98
2023-03-06T13:39:52.517Z,8.37
2023-03-06T13:42:36.206Z,7.96
2023-03-06T13:45:14.870Z,9.13
2023-03-06T13:48:03.167Z,10.13
2023-03-06T13:50:42.509Z,10.43
2023-03-06T13:53:50.602Z,11.80
2023-03-06T13:56:29.069Z,12.24
2023-03-06T13:59:26.339Z,12.96
2023-03-06T14:02:01.197Z,13.44
2023-03-06T14:04:56.673Z,13.88
2023-03-06T14:07:27.226Z,14.19
2023-03-06T14:10:20.968Z,14.21
2023-03-06T14:12:50.259Z,14.32
2023-03-06T14:15:35.865Z,14.30
2023-03-06T14:18:05.884Z,14.37
2023-03-06T14:20:50.232Z,13.61
2023-03-06T14:23:27.326Z,12.62
2023-03-06T14:26:17.577Z,11.18
2023-03-06T14:28:53.886Z,11.92
2023-03-06T14:31:42.907Z,12.05
2023-03-06T14:34:20.970Z,10.07
2023-03-06T14:36:51.012Z,9.77
2023-03-06T14:39:39.123Z,9.94
2023-03-06T14:42:17.347Z,9.64
2023-03-06T14:44:44.826Z,10.33
2023-03-06T14:47:27.129Z,10.00
2023-03-06T14:50:18.401Z,7.78
2023-03-06T14:52:46.063Z,7.52
2023-03-06T14:55:19.136Z,7.81
2023-03-06T14:57:50.675Z,7.72
2023-03-06T15:00:22.324Z,7.19
2023-03-06T15:02:52.517Z,7.30
2023-03-06T15:05:28.451Z,8.31
2023-03-06T15:08:01.013Z,8.59
2023-03-06T15:10:31.846Z,8.09
2023-03-06T15:13:09.739Z,7.90
2023-03-06T15:15:36.435Z,7.24
2023-03-06T15:18:03.562Z,7.69
2023-03-06T15:20:43.544Z,7.37
2023-03-06T15:23:19.605Z,7.23
2023-03-06T15:25:52.840Z,6.92
2023-03-06T15:28:37.780Z,7.29
2023-03-06T15:31:22.269Z,7.71
2023-03-06T15:34:02.726Z,8.17
2023-03-06T15:36:32.623Z,8.30
2023-03-06T15:39:00.803Z,7.39
2023-03-06T15:41:37.561Z,7.53
2023-03-06T15:44:15.139Z,7.63
2023-03-06T15:46:42.189Z,7.80
2023-03-06T15:49:18.037Z,7.89
2023-03-06T15:51:44.596Z,8.24
2023-03-06T15:54:12.601Z,9.30
2023-03-06T15:56:42.717Z,10.81
2023-03-06T15:59:18.171Z,12.26
2023-03-06T16:01:44.882Z,11.27
2023-03-06T16:04:11.677Z,11.07
2023-03-06T16:06:38.373Z,11.85
2023-03-06T16:09:05.889Z,13.04
2023-03-06T16:11:43.289Z,14.62
2023-03-06T16:14:23.765Z,16.18
2023-03-06T16:16:52.365Z,17.27
2023-03-06T16:19:29.245Z,18.93
2023-03-06T16:21:56.635Z,18.63
2023-03-06T16:24:26.071Z,19.91
2023-03-06T16:26:55.112Z,21.12
2023-03-06T16:29:24.827Z,21.57
2023-03-06T16:31:51.866Z,21.38
2023-03-06T16:34:21.783Z,22.74
2023-03-06T16:36:50.193Z,23.51
2023-03-06T16:39:20.172Z,24.60
2023-03-06T16:41:49.207Z,24.69
2023-03-06T16:44:15.954Z,25.34
2023-03-06T16:46:45.868Z,24.36
2023-03-06T16:49:22.148Z,24.25
2023-03-06T16:51:49.293Z,25.01
2023-03-06T16:54:16.716Z,25.20
2023-03-06T16:56:44.895Z,26.01
2023-03-06T16:59:12.598Z,25.66
2023-03-06T17:01:42.963Z,25.89
2023-03-06T17:04:10.034Z,26.02
2023-03-06T17:06:37.906Z,27.17
2023-03-06T17:09:04.800Z,28.50
2023-03-06T17:11:31.505Z,27.27
2023-03-06T17:13:58.262Z,26.30
2023-03-06T17:16:24.880Z,26.29
2023-03-06T17:18:51.674Z,25.88
2023-03-06T17:21:18.435Z,26.31
2023-03-06T17:23:45.155Z,27.15
2023-03-06T17:26:15.082Z,25.53
2023-03-06T17:28:42.608Z,26.41
2023-03-06T17:31:16.035Z,24.98
2023-03-06T17:33:43.368Z,25.14
2023-03-06T17:36:10.532Z,25.96
2023-03-06T17:38:37.356Z,25.10
2023-03-06T17:41:06.000Z,24.50
2023-03-06T17:43:33.134Z,27.15
2023-03-06T17:46:13.547Z,25.75
2023-03-06T17:48:40.383Z,24.59
2023-03-06T17:51:08.294Z,25.72
2023-03-06T17:53:35.875Z,24.43
2023-03-06T17:56:04.419Z,25.45
2023-03-06T17:58:31.218Z,24.80
2023-03-06T18:00:58.488Z,24.77
2023-03-06T18:03:25.126Z,27.05
2023-03-06T18:06:03.351Z,25.47
2023-03-06T18:08:30.080Z,26.73
2023-03-06T18:11:05.740Z,26.72
2023-03-06T18:13:34.786Z,28.57
2023-03-06T18:16:01.877Z,27.32
2023-03-06T18:18:28.580Z,28.79
2023-03-06T18:20:55.240Z,28.80
2023-03-06T18:23:22.549Z,29.39
2023-03-06T18:25:49.986Z,30.47
2023-03-06T18:28:16.580Z,29.99
2023-03-06T18:30:43.186Z,31.09
2023-03-06T18:33:10.238Z,31.66
2023-03-06T18:35:37.337Z,29.65
2023-03-06T18:38:04.018Z,28.61
2023-03-06T18:40:30.640Z,30.71
2023-03-06T18:42:57.240Z,30.24
2023-03-06T18:45:23.858Z,31.06
2023-03-06T18:47:50.469Z,31.89
2023-03-06T18:50:17.653Z,31.11
2023-03-06T18:52:44.468Z,31.15
2023-03-06T18:55:11.898Z,31.11
2023-03-06T18:57:39.332Z,30.83
2023-03-06T19:00:06.959Z,29.89
2023-03-06T19:02:33.660Z,29.95
2023-03-06T19:05:00.285Z,30.06
2023-03-06T19:07:26.983Z,30.24
2023-03-06T19:09:53.970Z,32.21
2023-03-06T19:12:20.625Z,32.55
2023-03-06T19:14:47.267Z,31.42
2023-03-06T19:17:13.854Z,31.10
2023-03-06T19:19:40.464Z,31.98
2023-03-06T19:22:07.154Z,32.54
2023-03-06T19:24:34.034Z,33.93
2023-03-06T19:27:00.757Z,32.68
2023-03-06T19:29:28.435Z,32.93
2023-03-06T19:31:57.139Z,34.57
2023-03-06T19:34:23.981Z,33.85
2023-03-06T19:36:50.993Z,33.28
2023-03-06T19:39:17.698Z,34.73
2023-03-06T19:41:46.401Z,36.37
2023-03-06T19:44:14.524Z,38.07
2023-03-06T19:46:41.250Z,36.34
2023-03-06T19:49:12.053Z,36.77
2023-03-06T19:51:38.908Z,35.79
2023-03-06T19:54:05.605Z,37.45
2023-03-06T19:56:33.560Z,36.12
2023-03-06T19:59:00.306Z,37.10
2023-03-06T20:01:28.502Z,37.65
2023-03-06T20:03:58.964Z,39.55
2023-03-06T20:06:28.417Z,37.30
2023-03-06T20:08:55.243Z,38.49
2023-03-06T20:11:26.255Z,39.90
2023-03-06T20:13:53.715Z,39.38
2023-03-06T20:16:20.798Z,38.51
2023-03-06T20:18:47.500Z,37.11
2023-03-06T20:21:15.107Z,37.62
2023-03-06T20:23:42.861Z,37.33
2023-03-06T20:26:12.477Z,38.97
2023-03-06T20:28:41.400Z,38.48
2023-03-06T20:31:16.469Z,36.41
2023-03-06T20:33:48.229Z,35.71
2023-03-06T20:36:18.548Z,37.16
2023-03-06T20:38:46.906Z,36.87
2023-03-06T20:41:19.724Z,37.27
2023-03-06T20:43:47.717Z,36.32
2023-03-06T20:46:15.203Z,38.47
2023-03-06T20:48:43.096Z,35.16
2023-03-06T20:51:23.929Z,35.81
2023-03-06T20:53:53.214Z,34.87
2023-03-06T20:56:22.494Z,34.39
2023-03-06T20:58:50.329Z,34.43
2023-03-06T21:01:22.889Z,35.15
2023-03-06T21:03:50.601Z,34.09
2023-03-06T21:06:18.147Z,33.21
2023-03-06T21:08:44.912Z,32.24
2023-03-06T21:11:11.811Z,32.42
2023-03-06T21:13:38.589Z,32.56
2023-03-06T21:16:11.566Z,31.93
2023-03-06T21:18:39.850Z,32.89
2023-03-06T21:21:12.792Z,31.63
2023-03-06T21:23:40.023Z,32.24
2023-03-06T21:26:07.442Z,33.59
2023-03-06T21:28:34.065Z,32.46
2023-03-06T21:31:02.273Z,32.68
2023-03-06T21:33:29.190Z,29.77
2023-03-06T21:35:55.876Z,30.34
2023-03-06T21:38:22.540Z,30.55
2023-03-06T21:40:49.201Z,29.86
2023-03-06T21:43:17.429Z,30.03
2023-03-06T21:45:48.282Z,29.30
2023-03-06T21:48:15.766Z,28.97
2023-03-06T21:50:42.609Z,28.36
2023-03-06T21:53:09.764Z,26.30
2023-03-06T21:55:40.798Z,26.28
2023-03-06T21:58:07.690Z,26.64
2023-03-06T22:00:36.452Z,26.48
2023-03-06T22:03:04.687Z,26.03
2023-03-06T22:05:34.256Z,23.61
2023-03-06T22:08:00.865Z,22.03
2023-03-06T22:10:27.498Z,20.24
2023-03-06T22:12:54.140Z,20.81
2023-03-06T22:15:21.839Z,19.83
2023-03-06T22:17:48.671Z,19.35
2023-03-06T22:20:15.630Z,18.58
2023-03-06T22:22:43.605Z,17.19
2023-03-06T22:25:10.463Z,15.86
2023-03-06T22:27:37.039Z,15.50
2023-03-06T22:30:04.877Z,14.67
2023-03-06T22:32:31.478Z,13.64
2023-03-06T22:34:58.159Z,12.49
2023-03-06T22:37:24.785Z,11.85
2023-03-06T22:39:51.370Z,12.26
2023-03-06T22:42:17.934Z,12.13
2023-03-06T22:44:44.594Z,11.87
2023-03-06T22:47:11.215Z,11.25
2023-03-06T22:49:37.872Z,11.16
2023-03-06T22:52:04.659Z,11.01
2023-03-06T22:54:32.223Z,10.68
2023-03-06T22:56:58.834Z,10.42
2023-03-06T22:59:25.391Z,10.86
2023-03-06T23:01:51.967Z,10.69
2023-03-06T23:04:18.559Z,11.17
2023-03-06T23:06:46.951Z,10.57
2023-03-06T23:09:16.920Z,10.50
2023-03-06T23:11:43.551Z,10.46
2023-03-06T23:14:14.334Z,10.35
2023-03-06T23:16:41.402Z,9.80
2023-03-06T23:19:08.317Z,9.16
2023-03-06T23:21:35.149Z,9.19
2023-03-06T23:24:02.201Z,9.03
2023-03-06T23:26:30.653Z,8.60
2023-03-06T23:28:57.743Z,10.47
2023-03-06T23:31:28.777Z,12.52
2023-03-06T23:34:02.883Z,11.14
2023-03-06T23:36:30.382Z,11.76
2023-03-06T23:38:57.763Z,14.87
2023-03-06T23:41:25.138Z,10.26
2023-03-06T23:43:53.534Z,10.26
2023-03-06T23:46:21.606Z,10.73
2023-03-06T23:48:48.317Z,10.57
2023-03-06T23:51:20.737Z,10.86
2023-03-06T23:53:54.742Z,11.75
2023-03-06T23:56:21.725Z,12.80
2023-03-06T23:58:49.009Z,14.51
